Time;durP1;ratioP1;P1;durP2;ratioP2;P2;SDS_P1;SDS_P2;PMS_P1;PMS_P2;Temp;Humidity;BMP_temperature;BMP_pressure;BME280_temperature;BME280_humidity;BME280_pressure;Samples;Min_cycle;Max_cycle;Signal;HPM_P1;HPM_P2
2022/01/24 00:00:23;;;;;;;51.00;37.90;;;;;;;;;;7333452;19;161981;-24
2022/01/24 00:02:54;;;;;;;26.27;19.38;;;;;;;;;;7330731;19;162678;-16
2022/01/24 00:05:27;;;;;;;23.20;18.23;;;;;;;;;;7333160;19;154169;-15
2022/01/24 00:07:58;;;;;;;27.15;20.92;;;;;;;;;;7331025;19;153642;-15
2022/01/24 08:38:33;;;;;;;4.32;2.58;;;;;;;;;;7370362;19;132430;-16
2022/01/24 08:41:12;;;;;;;3.30;2.55;;;;;;;;;;7365826;19;153815;-16
2022/01/24 08:43:58;;;;;;;2.70;2.50;;;;;;;;;;7364129;19;162186;-15
2022/01/24 08:46:30;;;;;;;2.47;2.28;;;;;;;;;;7363316;19;162576;-15
2022/01/24 08:49:01;;;;;;;3.30;2.80;;;;;;;;;;7365402;19;153921;-14
2022/01/24 08:51:32;;;;;;;3.47;2.63;;;;;;;;;;7367239;19;153594;-15
2022/01/24 08:54:10;;;;;;;2.67;2.33;;;;;;;;;;7363624;19;161961;-14
2022/01/24 08:56:41;;;;;;;3.05;2.75;;;;;;;;;;7363702;19;162325;-15
2022/01/24 08:59:16;;;;;;;3.63;2.70;;;;;;;;;;7364123;19;154146;-15
2022/01/24 09:01:47;;;;;;;2.65;2.45;;;;;;;;;;7363903;19;153632;-14
2022/01/24 09:04:19;;;;;;;2.47;2.28;;;;;;;;;;7363314;19;162146;-15
2022/01/24 09:06:50;;;;;;;2.40;2.20;;;;;;;;;;7362465;19;162422;-15
2022/01/24 09:09:24;;;;;;;2.80;2.60;;;;;;;;;;7363529;19;153991;-15
2022/01/24 09:11:55;;;;;;;3.42;2.13;;;;;;;;;;7363955;19;153524;-14
2022/01/24 09:14:26;;;;;;;2.65;2.45;;;;;;;;;;7362973;19;161803;-14
2022/01/24 09:16:58;;;;;;;2.60;2.40;;;;;;;;;;7365772;19;162467;-14
2022/01/24 09:19:29;;;;;;;2.58;2.38;;;;;;;;;;7363495;19;153966;-17
2022/01/24 09:22:00;;;;;;;2.50;2.30;;;;;;;;;;7363566;19;153625;-16
2022/01/24 09:24:35;;;;;;;2.13;2.03;;;;;;;;;;7363012;19;162175;-14
2022/01/24 09:27:07;;;;;;;2.00;1.90;;;;;;;;;;7361820;19;162436;-14
2022/01/24 09:29:40;;;;;;;2.53;2.30;;;;;;;;;;7363286;19;154175;-15
2022/01/24 09:32:11;;;;;;;2.83;2.50;;;;;;;;;;7363695;19;153485;-15
2022/01/24 09:34:42;;;;;;;2.90;2.40;;;;;;;;;;7362374;19;162181;-15
2022/01/24 09:37:14;;;;;;;3.45;2.28;;;;;;;;;;7356965;19;162411;-17
2022/01/24 09:39:48;;;;;;;2.42;2.20;;;;;;;;;;7333968;19;153998;-14
2022/01/24 09:42:27;;;;;;;2.40;2.20;;;;;;;;;;7332684;19;153513;-15
2022/01/24 09:44:59;;;;;;;2.58;2.38;;;;;;;;;;7332274;19;161871;-14
2022/01/24 09:47:31;;;;;;;2.33;2.20;;;;;;;;;;7332579;19;162427;-15
2022/01/24 09:50:02;;;;;;;2.42;2.22;;;;;;;;;;7333321;19;153956;-15
2022/01/24 09:52:34;;;;;;;3.05;2.40;;;;;;;;;;7334479;19;153760;-21
2022/01/24 09:55:09;;;;;;;2.90;2.13;;;;;;;;;;7334739;19;162009;-14
2022/01/24 09:57:41;;;;;;;2.53;2.33;;;;;;;;;;7336430;19;162364;-15
2022/01/24 10:00:15;;;;;;;2.30;2.10;;;;;;;;;;7337598;19;153958;-14
2022/01/24 10:02:49;;;;;;;3.58;2.22;;;;;;;;;;7335109;19;153258;-14
2022/01/24 10:05:23;;;;;;;2.33;2.05;;;;;;;;;;7337174;19;161860;-15
2022/01/24 10:07:57;;;;;;;2.70;2.20;;;;;;;;;;7331117;19;162522;-15
2022/01/24 10:10:38;;;;;;;2.38;2.28;;;;;;;;;;7333298;19;153962;-14
2022/01/24 10:16:29;;;;;;;2.60;2.25;;;;;;;;;;7336399;19;161924;-15
2022/01/24 10:19:06;;;;;;;2.15;2.05;;;;;;;;;;7336234;19;162686;-14
2022/01/24 10:22:00;;;;;;;1.95;1.80;;;;;;;;;;7332253;19;154672;-14
2022/01/24 10:24:35;;;;;;;2.15;2.05;;;;;;;;;;7332553;19;153582;-15
2022/01/24 10:27:18;;;;;;;2.22;2.05;;;;;;;;;;7331382;19;161915;-16
2022/01/24 10:29:52;;;;;;;2.20;1.90;;;;;;;;;;7332221;19;162374;-15
2022/01/24 10:32:42;;;;;;;1.98;1.88;;;;;;;;;;7333094;19;153925;-15
2022/01/24 10:35:26;;;;;;;2.20;1.98;;;;;;;;;;7332289;19;153642;-15
2022/01/24 10:38:19;;;;;;;2.20;2.00;;;;;;;;;;7329220;19;162336;-14
2022/01/24 10:40:54;;;;;;;;;;;;;;;;;;7332199;19;162428;-15
2022/01/24 10:43:30;;;;;;;2.10;2.00;;;;;;;;;;7331726;19;154089;-14
2022/01/24 10:46:02;;;;;;;2.58;2.05;;;;;;;;;;7332574;19;153521;-14
2022/01/24 10:48:35;;;;;;;2.53;2.25;;;;;;;;;;7333569;19;162054;-19
2022/01/24 10:51:14;;;;;;;2.47;2.25;;;;;;;;;;7329197;19;162296;-14
2022/01/24 10:53:47;;;;;;;2.35;2.17;;;;;;;;;;7332034;19;153976;-15
2022/01/24 10:56:37;;;;;;;3.83;2.28;;;;;;;;;;7331203;19;153782;-16
2022/01/24 10:59:21;;;;;;;2.47;2.30;;;;;;;;;;7335949;19;161906;-16
2022/01/24 11:01:53;;;;;;;;;;;;;;;;;;7335021;19;162382;-15
2022/01/24 11:04:26;;;;;;;2.47;2.20;;;;;;;;;;7331807;19;154541;-15
2022/01/24 11:07:01;;;;;;;2.72;1.75;;;;;;;;;;7331143;19;153781;-15
2022/01/24 11:09:34;;;;;;;2.05;1.95;;;;;;;;;;7328302;19;161790;-14
2022/01/24 11:12:10;;;;;;;2.17;2.08;;;;;;;;;;7330788;19;162415;-15
2022/01/24 11:14:46;;;;;;;2.38;2.00;;;;;;;;;;7331216;19;153925;-15
2022/01/24 11:17:23;;;;;;;2.03;1.92;;;;;;;;;;7331364;19;153629;-15
2022/01/24 11:20:00;;;;;;;2.00;1.90;;;;;;;;;;7330374;19;162004;-14
2022/01/24 11:22:34;;;;;;;1.98;1.88;;;;;;;;;;7330481;19;162576;-15
2022/01/24 11:25:08;;;;;;;5.95;2.30;;;;;;;;;;7330783;19;153953;-16
2022/01/24 11:27:41;;;;;;;2.08;1.85;;;;;;;;;;7331505;19;153635;-15
2022/01/24 11:30:18;;;;;;;2.25;1.90;;;;;;;;;;7333455;19;161819;-14
2022/01/24 11:32:53;;;;;;;2.00;1.60;;;;;;;;;;7332129;19;162528;-14
2022/01/24 11:35:32;;;;;;;6.13;2.10;;;;;;;;;;7330457;19;154321;-15
2022/01/24 11:38:04;;;;;;;2.40;2.10;;;;;;;;;;7327699;19;153731;-15
2022/01/24 11:40:53;;;;;;;2.63;1.92;;;;;;;;;;7329925;19;161804;-15
2022/01/24 11:43:33;;;;;;;2.45;1.95;;;;;;;;;;7330242;19;162561;-15
2022/01/24 11:46:29;;;;;;;2.45;2.25;;;;;;;;;;7329957;19;154135;-15
2022/01/24 11:49:06;;;;;;;1.65;1.55;;;;;;;;;;7332246;19;153637;-15
2022/01/24 11:51:39;;;;;;;2.22;1.80;;;;;;;;;;7329041;19;162035;-16
2022/01/24 11:54:31;;;;;;;2.10;1.95;;;;;;;;;;7331479;19;162346;-15
2022/01/24 11:57:24;;;;;;;2.25;1.98;;;;;;;;;;7332043;19;154214;-16
2022/01/24 12:00:17;;;;;;;2.63;1.73;;;;;;;;;;7331906;19;153559;-15
2022/01/24 12:02:53;;;;;;;2.42;1.70;;;;;;;;;;7330928;19;161745;-16
2022/01/24 12:05:27;;;;;;;2.67;1.90;;;;;;;;;;7329188;19;162535;-16
2022/01/24 12:08:00;;;;;;;1.85;1.73;;;;;;;;;;7329123;19;154100;-14
2022/01/24 12:10:47;;;;;;;2.00;1.90;;;;;;;;;;7329540;19;153508;-16
2022/01/24 12:13:27;;;;;;;1.60;1.50;;;;;;;;;;7329207;19;162075;-15
2022/01/24 12:16:06;;;;;;;2.38;1.85;;;;;;;;;;7329085;19;162414;-16
2022/01/24 12:19:05;;;;;;;2.00;1.90;;;;;;;;;;7331414;19;154062;-16
2022/01/24 12:21:38;;;;;;;2.92;1.90;;;;;;;;;;7329379;19;153667;-19
2022/01/24 12:24:13;;;;;;;2.03;1.92;;;;;;;;;;7328477;19;161912;-15
2022/01/24 12:26:48;;;;;;;1.90;1.80;;;;;;;;;;7328634;19;162653;-15
2022/01/24 12:29:22;;;;;;;1.80;1.70;;;;;;;;;;7327153;19;153946;-19
2022/01/24 12:31:56;;;;;;;1.95;1.77;;;;;;;;;;7327195;19;153502;-15
2022/01/24 12:34:34;;;;;;;2.10;1.90;;;;;;;;;;7332811;19;161831;-15
2022/01/24 12:37:23;;;;;;;1.90;1.80;;;;;;;;;;7326874;19;162557;-16
2022/01/24 12:40:01;;;;;;;2.00;1.90;;;;;;;;;;7328496;19;154065;-15
2022/01/24 12:42:41;;;;;;;2.10;1.90;;;;;;;;;;7324845;19;153603;-15
2022/01/24 12:48:14;;;;;;;1.80;1.70;;;;;;;;;;7330114;19;162649;-16
2022/01/24 12:50:51;;;;;;;1.75;1.65;;;;;;;;;;7328741;19;154205;-16
2022/01/24 12:53:22;;;;;;;1.92;1.80;;;;;;;;;;7330874;19;153590;-15
2022/01/24 12:56:02;;;;;;;1.98;1.73;;;;;;;;;;7329875;19;161967;-15
2022/01/24 12:58:36;;;;;;;1.90;1.80;;;;;;;;;;7326085;19;162342;-15
2022/01/24 13:01:23;;;;;;;2.50;2.30;;;;;;;;;;7324331;19;154050;-15
2022/01/24 13:03:57;;;;;;;2.17;1.90;;;;;;;;;;7324041;19;153293;-15
2022/01/24 13:06:33;;;;;;;2.05;1.95;;;;;;;;;;7325859;19;161967;-14
2022/01/24 13:09:13;;;;;;;2.25;2.13;;;;;;;;;;7327143;19;163393;-15
2022/01/24 13:11:48;;;;;;;1.98;1.85;;;;;;;;;;7324219;19;154289;-16
2022/01/24 13:14:24;;;;;;;2.10;2.00;;;;;;;;;;7329445;19;153637;-16
2022/01/24 13:22:38;;;;;;;3.15;2.10;;;;;;;;;;7331479;19;153996;-15
2022/01/24 13:25:13;;;;;;;2.17;1.50;;;;;;;;;;7335997;19;153506;-15
2022/01/24 13:27:46;;;;;;;2.38;2.17;;;;;;;;;;7335421;19;162074;-15
2022/01/24 13:30:22;;;;;;;2.17;1.98;;;;;;;;;;7335306;19;162678;-16
2022/01/24 13:32:55;;;;;;;2.38;2.17;;;;;;;;;;7337619;19;154147;-15
2022/01/24 13:35:31;;;;;;;2.38;1.95;;;;;;;;;;7335879;19;153558;-15
2022/01/24 13:38:07;;;;;;;2.25;2.08;;;;;;;;;;7334063;19;161865;-15
2022/01/24 13:40:42;;;;;;;2.22;2.03;;;;;;;;;;7335092;19;162406;-15
2022/01/24 13:43:13;;;;;;;2.00;1.88;;;;;;;;;;7333226;19;154118;-15
2022/01/24 13:45:46;;;;;;;1.70;1.60;;;;;;;;;;7333803;19;155139;-15
2022/01/24 13:48:22;;;;;;;2.00;1.80;;;;;;;;;;7330748;19;161908;-17
2022/01/24 13:50:55;;;;;;;2.50;1.80;;;;;;;;;;7333815;19;162781;-16
2022/01/24 13:53:40;;;;;;;2.40;2.00;;;;;;;;;;7337621;19;153966;-16
2022/01/24 13:56:21;;;;;;;2.20;1.92;;;;;;;;;;7337320;19;153637;-16
2022/01/24 13:59:08;;;;;;;4.03;1.90;;;;;;;;;;7335269;19;161857;-16
2022/01/24 14:01:51;;;;;;;2.65;2.10;;;;;;;;;;7335718;19;162506;-15
2022/01/24 14:04:30;;;;;;;;;;;;;;;;;;7337433;19;153955;-15
2022/01/24 14:07:03;;;;;;;2.28;1.90;;;;;;;;;;7337415;19;153330;-16
2022/01/24 14:09:38;;;;;;;;;;;;;;;;;;7336660;19;161775;-15
2022/01/24 14:12:15;;;;;;;2.10;1.90;;;;;;;;;;7336230;19;162516;-16
2022/01/24 14:14:55;;;;;;;2.03;1.85;;;;;;;;;;7337121;19;154019;-16
2022/01/24 14:17:45;;;;;;;1.92;1.67;;;;;;;;;;7336677;19;153620;-15
2022/01/24 14:20:18;;;;;;;4.53;1.65;;;;;;;;;;7336503;19;161808;-16
2022/01/24 14:22:51;;;;;;;2.08;1.92;;;;;;;;;;7335859;19;162553;-15
2022/01/24 14:25:27;;;;;;;2.28;1.85;;;;;;;;;;7332371;19;154071;-15
2022/01/24 14:28:02;;;;;;;2.20;2.00;;;;;;;;;;7336382;19;153506;-16
2022/01/24 14:30:38;;;;;;;2.13;1.85;;;;;;;;;;7331188;19;162123;-16
2022/01/24 14:33:12;;;;;;;1.80;1.70;;;;;;;;;;7332027;19;163165;-15
2022/01/24 14:35:56;;;;;;;3.05;1.73;;;;;;;;;;7330525;19;153966;-15
2022/01/24 14:38:31;;;;;;;;;;;;;;;;;;7335568;19;153982;-15
2022/01/24 14:41:10;;;;;;;2.35;1.90;;;;;;;;;;7331885;19;161968;-16
2022/01/24 14:46:30;;;;;;;2.10;1.90;;;;;;;;;;7332083;19;153968;-16
2022/01/24 14:49:03;;;;;;;3.67;2.00;;;;;;;;;;7332083;19;153554;-15
2022/01/24 14:51:37;;;;;;;2.72;2.00;;;;;;;;;;7329519;19;161800;-15
2022/01/24 14:54:10;;;;;;;3.25;1.65;;;;;;;;;;7331820;19;162657;-15
2022/01/24 14:56:50;;;;;;;2.50;2.30;;;;;;;;;;7332398;19;154023;-15
2022/01/24 14:59:21;;;;;;;2.05;1.70;;;;;;;;;;7331995;19;154071;-14
2022/01/24 15:01:53;;;;;;;1.85;1.75;;;;;;;;;;7331284;19;161996;-16
2022/01/24 15:04:25;;;;;;;3.38;2.60;;;;;;;;;;7331550;19;162416;-14
2022/01/24 15:06:56;;;;;;;3.53;1.98;;;;;;;;;;7332095;19;154024;-16
2022/01/24 15:09:29;;;;;;;2.15;1.95;;;;;;;;;;7332053;19;153539;-16
2022/01/24 15:12:07;;;;;;;2.70;1.85;;;;;;;;;;7329033;19;161956;-21
2022/01/24 15:14:44;;;;;;;2.83;2.08;;;;;;;;;;7331122;19;162781;-20
2022/01/24 15:17:30;;;;;;;2.67;1.98;;;;;;;;;;7331263;19;154559;-15
2022/01/24 15:25:32;;;;;;;2.15;1.77;;;;;;;;;;7330888;19;162620;-14
2022/01/24 15:28:07;;;;;;;1.80;1.70;;;;;;;;;;7331006;19;154015;-15
2022/01/24 15:30:40;;;;;;;1.77;1.67;;;;;;;;;;7329226;19;153604;-15
2022/01/24 15:33:11;;;;;;;2.17;1.80;;;;;;;;;;7330750;19;161906;-17
2022/01/24 15:35:42;;;;;;;2.38;1.63;;;;;;;;;;7329053;19;162601;-16
2022/01/24 15:38:14;;;;;;;1.85;1.75;;;;;;;;;;7327138;19;154140;-16
2022/01/24 15:40:46;;;;;;;1.73;1.63;;;;;;;;;;7331109;19;153501;-16
2022/01/24 15:43:41;;;;;;;4.25;1.75;;;;;;;;;;7330523;19;161814;-15
2022/01/24 15:48:55;;;;;;;2.10;1.73;;;;;;;;;;7331010;19;153983;-15
2022/01/24 15:51:30;;;;;;;1.65;1.55;;;;;;;;;;7329232;19;153714;-16
2022/01/24 15:54:02;;;;;;;2.13;1.67;;;;;;;;;;7329017;19;161969;-15
2022/01/24 15:59:20;;;;;;;2.30;1.67;;;;;;;;;;7330511;19;153938;-15
2022/01/24 16:01:51;;;;;;;1.60;1.50;;;;;;;;;;7330104;19;153673;-15
2022/01/24 16:04:22;;;;;;;1.70;1.60;;;;;;;;;;7328823;19;161841;-16
2022/01/24 16:06:54;;;;;;;1.92;1.83;;;;;;;;;;7329582;19;162446;-17
2022/01/24 16:09:25;;;;;;;2.60;1.70;;;;;;;;;;7330248;19;154055;-16
2022/01/24 16:11:57;;;;;;;2.97;1.88;;;;;;;;;;7328197;19;153536;-15
2022/01/24 16:14:30;;;;;;;2.60;1.75;;;;;;;;;;7329472;19;161795;-16
2022/01/24 16:17:03;;;;;;;2.00;1.90;;;;;;;;;;7329217;19;162632;-16
2022/01/24 16:19:38;;;;;;;2.13;1.92;;;;;;;;;;7329662;19;154212;-15
2022/01/24 16:22:30;;;;;;;1.50;1.40;;;;;;;;;;7329434;19;153728;-16
2022/01/24 16:27:45;;;;;;;2.35;1.80;;;;;;;;;;7328962;19;162402;-16
2022/01/24 16:30:19;;;;;;;1.85;1.70;;;;;;;;;;7329315;19;154058;-15
2022/01/24 16:32:50;;;;;;;2.45;1.80;;;;;;;;;;7326877;19;153583;-16
2022/01/24 16:35:21;;;;;;;1.70;1.60;;;;;;;;;;7328840;19;161547;-15
2022/01/24 16:37:52;;;;;;;2.75;1.83;;;;;;;;;;7326312;19;162569;-17
2022/01/24 16:40:32;;;;;;;3.05;1.83;;;;;;;;;;7329293;19;154244;-16
2022/01/24 16:48:37;;;;;;;1.67;1.58;;;;;;;;;;7331392;19;162547;-15
2022/01/24 16:51:11;;;;;;;1.65;1.55;;;;;;;;;;7335545;19;154061;-15
2022/01/24 16:53:46;;;;;;;2.03;1.40;;;;;;;;;;7335594;19;153494;-16
2022/01/24 16:56:17;;;;;;;1.50;1.40;;;;;;;;;;7335095;19;161818;-15
2022/01/24 16:58:49;;;;;;;1.70;1.60;;;;;;;;;;7334925;19;162318;-15
2022/01/24 17:01:23;;;;;;;2.28;1.60;;;;;;;;;;7335493;19;153963;-15
2022/01/24 17:03:55;;;;;;;2.05;1.88;;;;;;;;;;7335002;19;153429;-16
2022/01/24 17:06:28;;;;;;;1.95;1.38;;;;;;;;;;7334755;19;162118;-18
2022/01/24 17:09:00;;;;;;;1.60;1.50;;;;;;;;;;7335225;19;162498;-16
2022/01/24 17:11:31;;;;;;;1.80;1.53;;;;;;;;;;7333335;19;154297;-16
2022/01/24 17:14:08;;;;;;;2.55;1.95;;;;;;;;;;7335008;19;153538;-17
2022/01/24 17:16:47;;;;;;;2.40;1.55;;;;;;;;;;7334917;19;161883;-16
2022/01/24 17:19:21;;;;;;;2.08;1.88;;;;;;;;;;7334976;19;162452;-15
2022/01/24 17:21:53;;;;;;;2.08;1.70;;;;;;;;;;7335041;19;154115;-16
2022/01/24 17:24:28;;;;;;;2.20;1.65;;;;;;;;;;7334546;19;153719;-15
2022/01/24 17:27:21;;;;;;;1.60;1.50;;;;;;;;;;7334758;19;162111;-14
2022/01/24 17:29:54;;;;;;;1.95;1.63;;;;;;;;;;7334605;19;162507;-15
2022/01/24 17:32:45;;;;;;;3.22;1.73;;;;;;;;;;7333887;19;154120;-15
2022/01/24 17:35:19;;;;;;;1.67;1.50;;;;;;;;;;7334532;19;153563;-16
2022/01/24 17:37:51;;;;;;;1.85;1.75;;;;;;;;;;7331939;19;162212;-15
2022/01/24 17:40:24;;;;;;;1.85;1.75;;;;;;;;;;7333788;19;162125;-16
2022/01/24 17:42:56;;;;;;;3.50;1.67;;;;;;;;;;7334230;19;153966;-15
2022/01/24 17:45:46;;;;;;;2.10;1.52;;;;;;;;;;7334014;19;153474;-15
2022/01/24 17:48:21;;;;;;;2.38;1.90;;;;;;;;;;7333404;19;161922;-16
2022/01/24 17:50:53;;;;;;;1.83;1.73;;;;;;;;;;7333255;19;162394;-15
2022/01/24 17:53:27;;;;;;;2.13;1.90;;;;;;;;;;7330737;19;153970;-14
2022/01/24 17:56:02;;;;;;;2.08;1.88;;;;;;;;;;7333788;19;153529;-14
2022/01/24 17:58:34;;;;;;;2.60;1.75;;;;;;;;;;7331070;19;162051;-14
2022/01/24 18:01:05;;;;;;;1.77;1.65;;;;;;;;;;7333393;19;162447;-15
2022/01/24 18:03:39;;;;;;;1.80;1.70;;;;;;;;;;7332075;19;154023;-15
2022/01/24 18:06:12;;;;;;;1.65;1.40;;;;;;;;;;7333531;19;153568;-14
2022/01/24 18:08:43;;;;;;;1.77;1.63;;;;;;;;;;7332987;19;161776;-15
2022/01/24 18:11:16;;;;;;;1.60;1.50;;;;;;;;;;7332761;19;162406;-14
2022/01/24 18:13:47;;;;;;;2.13;1.90;;;;;;;;;;7330876;19;154134;-16
2022/01/24 18:16:19;;;;;;;2.70;1.85;;;;;;;;;;7332554;19;153439;-14
2022/01/24 18:18:52;;;;;;;3.42;2.33;;;;;;;;;;7332376;19;161844;-14
2022/01/24 18:21:24;;;;;;;2.60;2.00;;;;;;;;;;7332287;19;162712;-14
2022/01/24 18:23:55;;;;;;;2.95;2.20;;;;;;;;;;7332631;19;153977;-15
2022/01/24 18:26:26;;;;;;;2.00;1.90;;;;;;;;;;7332377;19;153696;-15
2022/01/24 18:28:57;;;;;;;2.67;2.10;;;;;;;;;;7332399;19;161795;-16
2022/01/24 18:31:29;;;;;;;1.85;1.75;;;;;;;;;;7332128;19;162359;-15
2022/01/24 18:34:03;;;;;;;2.67;2.28;;;;;;;;;;7330382;19;154005;-15
2022/01/24 18:36:34;;;;;;;2.70;2.03;;;;;;;;;;7331161;19;153552;-15
2022/01/24 18:39:05;;;;;;;2.00;1.90;;;;;;;;;;7331684;19;161842;-16
2022/01/24 18:41:38;;;;;;;2.72;2.28;;;;;;;;;;7330494;19;162447;-14
2022/01/24 18:44:11;;;;;;;2.05;1.95;;;;;;;;;;7332066;19;153987;-15
2022/01/24 18:46:42;;;;;;;2.83;2.17;;;;;;;;;;7332000;19;153423;-15
2022/01/24 18:49:16;;;;;;;2.20;1.95;;;;;;;;;;7330308;19;161962;-14
2022/01/24 18:51:48;;;;;;;2.30;2.10;;;;;;;;;;7331425;19;162525;-15
2022/01/24 18:54:23;;;;;;;2.60;2.40;;;;;;;;;;7328310;19;154110;-14
2022/01/24 18:56:57;;;;;;;2.30;2.10;;;;;;;;;;7331528;19;153520;-15
2022/01/24 18:59:29;;;;;;;3.47;2.42;;;;;;;;;;7331191;19;162069;-15
2022/01/24 19:02:03;;;;;;;2.47;2.28;;;;;;;;;;7331331;19;162486;-15
2022/01/24 19:04:37;;;;;;;3.88;2.70;;;;;;;;;;7331422;19;153958;-16
2022/01/24 19:07:08;;;;;;;3.00;2.70;;;;;;;;;;7331230;19;153541;-16
2022/01/24 19:09:40;;;;;;;4.88;2.83;;;;;;;;;;7330960;19;162144;-16
2022/01/24 19:12:12;;;;;;;3.13;2.72;;;;;;;;;;7328490;19;162388;-15
2022/01/24 19:14:44;;;;;;;2.97;2.65;;;;;;;;;;7328675;19;154206;-15
2022/01/24 19:17:25;;;;;;;3.47;3.17;;;;;;;;;;7330651;19;153671;-15
2022/01/24 19:23:08;;;;;;;3.28;2.97;;;;;;;;;;7330436;19;161811;-14
2022/01/24 19:25:37;;;;;;;3.08;2.78;;;;;;;;;;7330921;19;154206;-16
2022/01/24 19:28:08;;;;;;;4.45;2.90;;;;;;;;;;7329961;19;154114;-15
2022/01/24 19:30:40;;;;;;;3.03;2.83;;;;;;;;;;7329039;19;161869;-15
2022/01/24 19:33:12;;;;;;;4.65;3.38;;;;;;;;;;7328494;19;162724;-15
2022/01/24 19:35:45;;;;;;;5.00;3.78;;;;;;;;;;7330601;19;154059;-15
2022/01/24 19:38:17;;;;;;;4.63;3.47;;;;;;;;;;7327768;19;153686;-15
2022/01/24 19:40:49;;;;;;;4.75;4.00;;;;;;;;;;7330288;19;161853;-15
2022/01/24 19:43:20;;;;;;;6.13;5.38;;;;;;;;;;7330217;19;162314;-15
2022/01/24 19:45:52;;;;;;;12.63;9.88;;;;;;;;;;7330384;19;154011;-15
2022/01/24 19:48:26;;;;;;;11.85;8.80;;;;;;;;;;7330733;19;153696;-15
2022/01/24 19:51:04;;;;;;;8.52;6.88;;;;;;;;;;7330347;19;162194;-15
2022/01/24 19:53:38;;;;;;;8.23;6.03;;;;;;;;;;7329489;19;162531;-15
2022/01/24 19:56:21;;;;;;;6.18;4.85;;;;;;;;;;7330109;19;154033;-15
2022/01/24 19:58:59;;;;;;;5.72;4.63;;;;;;;;;;7329627;19;153560;-14
2022/01/24 20:01:32;;;;;;;5.72;5.10;;;;;;;;;;7329899;19;161774;-15
2022/01/24 20:04:13;;;;;;;5.82;4.43;;;;;;;;;;7330230;19;162417;-16
2022/01/24 20:06:50;;;;;;;6.75;5.40;;;;;;;;;;7330126;19;154059;-16
2022/01/24 20:09:22;;;;;;;7.15;6.18;;;;;;;;;;7330073;19;153545;-16
2022/01/24 20:11:54;;;;;;;7.03;5.85;;;;;;;;;;7329448;19;161774;-15
2022/01/24 20:14:26;;;;;;;6.95;6.22;;;;;;;;;;7328282;19;162435;-15
2022/01/24 20:16:59;;;;;;;7.88;7.07;;;;;;;;;;7329760;19;153986;-15
2022/01/24 20:19:30;;;;;;;8.88;7.10;;;;;;;;;;7329434;19;153591;-16
2022/01/24 20:22:05;;;;;;;8.30;6.22;;;;;;;;;;7328152;19;162059;-16
2022/01/24 20:24:37;;;;;;;11.02;6.32;;;;;;;;;;7329783;19;162564;-16
2022/01/24 20:27:08;;;;;;;7.38;6.18;;;;;;;;;;7328222;19;154022;-16
2022/01/24 20:29:41;;;;;;;7.50;6.45;;;;;;;;;;7332445;19;153729;-15
2022/01/24 20:32:14;;;;;;;8.38;6.15;;;;;;;;;;7331725;19;162299;-15
2022/01/24 20:34:45;;;;;;;8.13;5.93;;;;;;;;;;7330918;19;162571;-15
2022/01/24 20:37:19;;;;;;;8.38;6.93;;;;;;;;;;7330939;19;154203;-16
2022/01/24 20:39:51;;;;;;;9.50;6.22;;;;;;;;;;7332305;19;153590;-14
2022/01/24 20:42:24;;;;;;;7.15;5.68;;;;;;;;;;7331771;19;161641;-15
2022/01/24 20:44:55;;;;;;;6.60;5.90;;;;;;;;;;7331069;19;162365;-15
2022/01/24 20:47:27;;;;;;;9.68;6.10;;;;;;;;;;7330355;19;154313;-15
2022/01/24 20:49:59;;;;;;;8.63;7.47;;;;;;;;;;7330660;19;153509;-21
2022/01/24 20:52:33;;;;;;;10.63;6.50;;;;;;;;;;7330586;19;161815;-18
2022/01/24 20:55:05;;;;;;;10.52;5.80;;;;;;;;;;7329086;19;162388;-15
2022/01/24 20:57:36;;;;;;;6.82;6.10;;;;;;;;;;7328407;19;154196;-15
2022/01/24 21:00:09;;;;;;;8.40;6.20;;;;;;;;;;7328525;19;153816;-16
2022/01/24 21:02:41;;;;;;;8.50;5.85;;;;;;;;;;7328021;19;161959;-17
2022/01/24 21:05:12;;;;;;;6.93;5.75;;;;;;;;;;7327769;19;162558;-16
2022/01/24 21:07:46;;;;;;;8.43;6.45;;;;;;;;;;7328296;19;154023;-16
2022/01/24 21:10:22;;;;;;;9.50;6.40;;;;;;;;;;7328363;19;153814;-16
2022/01/24 21:13:08;;;;;;;7.55;6.05;;;;;;;;;;7327693;19;161955;-16
2022/01/24 21:15:39;;;;;;;6.95;5.60;;;;;;;;;;7326227;19;162417;-16
2022/01/24 21:18:11;;;;;;;7.05;5.75;;;;;;;;;;7327947;19;154061;-14
2022/01/24 21:20:42;;;;;;;20.00;6.22;;;;;;;;;;7327633;19;153770;-15
2022/01/24 21:23:16;;;;;;;9.52;5.88;;;;;;;;;;7327257;19;161914;-15
2022/01/24 21:25:47;;;;;;;5.93;5.32;;;;;;;;;;7327404;19;162342;-16
2022/01/24 21:28:19;;;;;;;7.43;5.47;;;;;;;;;;7327794;19;154356;-17
2022/01/24 21:30:50;;;;;;;6.68;5.57;;;;;;;;;;7327408;19;153565;-16
2022/01/24 21:33:23;;;;;;;6.85;5.65;;;;;;;;;;7327229;19;161807;-15
2022/01/24 21:35:55;;;;;;;6.25;5.55;;;;;;;;;;7332016;19;162404;-15
2022/01/24 21:38:28;;;;;;;5.55;5.00;;;;;;;;;;7335269;19;153993;-15
2022/01/24 21:41:06;;;;;;;6.47;5.40;;;;;;;;;;7334938;19;153722;-16
2022/01/24 21:43:38;;;;;;;6.25;5.43;;;;;;;;;;7335169;19;162174;-15
2022/01/24 21:46:11;;;;;;;7.40;5.85;;;;;;;;;;7335612;19;162537;-15
2022/01/24 21:48:43;;;;;;;7.27;5.80;;;;;;;;;;7337506;19;154112;-16
2022/01/24 21:51:16;;;;;;;7.32;5.22;;;;;;;;;;7337030;19;153703;-16
2022/01/24 21:53:51;;;;;;;6.68;5.97;;;;;;;;;;7335113;19;161876;-16
2022/01/24 21:56:22;;;;;;;5.95;5.05;;;;;;;;;;7334536;19;162549;-16
2022/01/24 21:58:54;;;;;;;5.95;5.35;;;;;;;;;;7337099;19;154187;-16
2022/01/24 22:01:26;;;;;;;;;;;;;;;;;;7337544;19;153522;-15
2022/01/24 22:03:58;;;;;;;9.32;5.50;;;;;;;;;;7336107;19;162124;-16
2022/01/24 22:06:29;;;;;;;6.60;5.50;;;;;;;;;;7336132;19;162385;-16
2022/01/24 22:09:03;;;;;;;6.00;4.80;;;;;;;;;;7336871;19;154084;-15
2022/01/24 22:11:37;;;;;;;6.57;5.03;;;;;;;;;;7335420;19;153575;-15
2022/01/24 22:14:09;;;;;;;6.53;5.13;;;;;;;;;;7335901;19;161894;-14
2022/01/24 22:16:40;;;;;;;4.93;4.43;;;;;;;;;;7334110;19;162329;-15
2022/01/24 22:19:12;;;;;;;4.90;4.50;;;;;;;;;;7336403;19;153983;-15
2022/01/24 22:21:43;;;;;;;5.78;5.07;;;;;;;;;;7336076;19;153692;-16
2022/01/24 22:24:17;;;;;;;5.85;4.75;;;;;;;;;;7336460;19;161920;-15
2022/01/24 22:26:48;;;;;;;5.13;4.63;;;;;;;;;;7335616;19;162651;-14
2022/01/24 22:29:20;;;;;;;4.93;4.50;;;;;;;;;;7335144;19;153974;-15
2022/01/24 22:31:51;;;;;;;5.32;4.82;;;;;;;;;;7336556;19;153644;-15
2022/01/24 22:34:23;;;;;;;7.30;5.38;;;;;;;;;;7335437;19;161991;-16
2022/01/24 22:36:54;;;;;;;4.90;4.40;;;;;;;;;;7332924;19;162379;-15
2022/01/24 22:39:28;;;;;;;5.13;4.63;;;;;;;;;;7335208;19;154071;-16
2022/01/24 22:42:05;;;;;;;5.75;4.35;;;;;;;;;;7334366;19;153508;-16
2022/01/24 22:44:37;;;;;;;5.95;4.50;;;;;;;;;;7333934;19;162109;-16
2022/01/24 22:47:09;;;;;;;5.90;4.50;;;;;;;;;;7332280;19;162404;-15
2022/01/24 22:49:41;;;;;;;5.40;4.90;;;;;;;;;;7332802;19;154161;-16
2022/01/24 22:52:12;;;;;;;7.43;4.90;;;;;;;;;;7332403;19;153531;-15
2022/01/24 22:54:46;;;;;;;4.85;4.35;;;;;;;;;;7332251;19;161958;-15
2022/01/24 22:57:18;;;;;;;4.88;4.28;;;;;;;;;;7329681;19;162394;-15
2022/01/24 22:59:50;;;;;;;4.97;4.20;;;;;;;;;;7332352;19;153801;-16
2022/01/24 23:02:22;;;;;;;5.68;5.18;;;;;;;;;;7332182;19;153521;-15
2022/01/24 23:04:54;;;;;;;5.30;4.33;;;;;;;;;;7331829;19;162353;-15
2022/01/24 23:07:25;;;;;;;4.50;4.10;;;;;;;;;;7331609;19;162387;-15
2022/01/24 23:09:59;;;;;;;5.97;4.53;;;;;;;;;;7331930;19;154133;-15
2022/01/24 23:12:32;;;;;;;4.40;3.88;;;;;;;;;;7331868;19;153604;-15
2022/01/24 23:17:55;;;;;;;4.50;4.07;;;;;;;;;;7328663;19;162382;-14
2022/01/24 23:20:26;;;;;;;6.43;4.65;;;;;;;;;;7331596;19;154016;-16
2022/01/24 23:22:58;;;;;;;5.18;4.68;;;;;;;;;;7331645;19;153582;-16
2022/01/24 23:25:39;;;;;;;4.35;3.95;;;;;;;;;;7331495;19;161828;-16
2022/01/24 23:28:11;;;;;;;4.43;3.83;;;;;;;;;;7331048;19;162564;-17
2022/01/24 23:31:00;;;;;;;5.85;4.32;;;;;;;;;;7331269;19;153934;-17
2022/01/24 23:33:41;;;;;;;5.68;4.10;;;;;;;;;;7335750;19;153528;-16
2022/01/24 23:39:03;;;;;;;4.20;3.88;;;;;;;;;;7331012;19;162276;-16
2022/01/24 23:41:45;;;;;;;4.55;4.10;;;;;;;;;;7333154;19;154031;-16
2022/01/24 23:44:18;;;;;;;5.22;4.43;;;;;;;;;;7330967;19;153352;-15
2022/01/24 23:46:49;;;;;;;4.22;3.83;;;;;;;;;;7330433;19;161818;-17
2022/01/24 23:49:23;;;;;;;5.05;4.57;;;;;;;;;;7330427;19;162457;-23
2022/01/24 23:51:57;;;;;;;4.60;4.15;;;;;;;;;;7330744;19;154257;-19
2022/01/24 23:54:32;;;;;;;5.03;4.40;;;;;;;;;;7330774;19;153624;-16
2022/01/24 23:57:14;;;;;;;7.28;4.15;;;;;;;;;;7327943;19;161924;-15
